Ulisse Primo — INLN — position and weather

sailwx.info

Track history (hours):
 
Tides and Currents Weather Stations Pressure Air Temp Water Temp Dewpoint Dewpoint Depression Visibility Wind Speed Wind Dir Waves Ship Positions

Ulisse Primo

Last reported at 2016-Jun-28 12:33 UTC. Time now 2016-Jun-28 13:29 UTC.
Position N 45°20' E 012°20'.

Length 50 m.

Type: Other ship. MMSI: 247033000.

Date/timePositionNaut miles runAvg speedWind from/ knotsBaromVisibWave heightAir tempDewpointWater temp
2016-Jun-28 12:33N 45°20' E 012°20'0 0.0
2016-Jun-28 11:33N 45°20' E 012°20'0 0.0
2016-Jun-28 10:34N 45°20' E 012°20'0 0.0
2016-Jun-28 09:34N 45°20' E 012°20'0 0.0
2016-Jun-28 08:33N 45°20' E 012°20'0 0.0
2016-Jun-28 07:33N 45°20' E 012°20'0 0.0
2016-Jun-28 06:33N 45°20' E 012°20'1 0.7
2016-Jun-28 04:34N 45°19' E 012°21'6 6.4
2016-Jun-28 03:33N 45°13' E 012°16'1 0.9
2016-Jun-28 02:34N 45°12' E 012°16'0 0.0
2016-Jun-28 01:34N 45°12' E 012°16'0 0.0
2016-Jun-28 00:34N 45°12' E 012°16'0 0.0
2016-Jun-27 23:33N 45°12' E 012°16'0 0.0
2016-Jun-27 22:34N 45°12' E 012°16'0 0.0
2016-Jun-27 21:33N 45°12' E 012°16'0 0.0
2016-Jun-27 20:33N 45°12' E 012°16'0 0.0
2016-Jun-27 19:34N 45°12' E 012°16'0 0.0
2016-Jun-27 18:33N 45°12' E 012°16'0 0.0
2016-Jun-27 17:33N 45°12' E 012°16'0 0.0
2016-Jun-27 16:34N 45°12' E 012°16'0 0.0
2016-Jun-27 15:33N 45°12' E 012°16'0 0.0
2016-Jun-27 14:33N 45°12' E 012°16'0 0.0
2016-Jun-27 13:33N 45°12' E 012°16'4 4.5
2016-Jun-27 12:34N 45°16' E 012°20'4 4.3
2016-Jun-27 11:34N 45°20' E 012°20'0 0.0
2016-Jun-27 10:33N 45°20' E 012°20'0 0.0
2016-Jun-27 09:33N 45°20' E 012°20'0 0.0
2016-Jun-27 08:34N 45°20' E 012°20'0 0.0
2016-Jun-27 07:33N 45°20' E 012°20'0 0.0
2016-Jun-27 06:34N 45°20' E 012°20'0 0.0
2016-Jun-27 05:33N 45°20' E 012°20'3 2.9
2016-Jun-27 04:34N 45°17' E 012°20'6 5.8
2016-Jun-27 03:33N 45°12' E 012°16'0 0.0
2016-Jun-27 02:33N 45°12' E 012°16'0 0.0
2016-Jun-27 01:33N 45°12' E 012°16'0 0.0
2016-Jun-27 00:34N 45°12' E 012°16'0 0.0
2016-Jun-26 23:33N 45°12' E 012°16'0 0.0
2016-Jun-26 22:33N 45°12' E 012°16'0 0.0
2016-Jun-26 21:33N 45°12' E 012°16'0 0.0
2016-Jun-26 20:33N 45°12' E 012°16'0 0.0
2016-Jun-26 19:33N 45°12' E 012°16'0 0.0
2016-Jun-26 18:34N 45°12' E 012°16'0 0.0
2016-Jun-26 17:34N 45°12' E 012°16'0 0.0
2016-Jun-26 16:33N 45°12' E 012°16'0 0.0
2016-Jun-26 15:34N 45°12' E 012°16'0 0.0
2016-Jun-26 14:33N 45°12' E 012°16'0 0.0
2016-Jun-26 13:33N 45°12' E 012°16'0 0.0
2016-Jun-26 12:34N 45°12' E 012°16'0 0.0
2016-Jun-26 11:34N 45°12' E 012°16'0 0.0
2016-Jun-26 10:34N 45°12' E 012°16'0 0.0
2016-Jun-26 09:33N 45°12' E 012°16'0 0.0
2016-Jun-26 08:34N 45°12' E 012°16'0 0.0
2016-Jun-26 07:33N 45°12' E 012°16'0 0.0
2016-Jun-26 06:34N 45°12' E 012°16'0 0.0
2016-Jun-26 05:33N 45°12' E 012°16'0 0.0
2016-Jun-26 04:34N 45°12' E 012°16'0 0.0
2016-Jun-26 03:33N 45°12' E 012°16'0 0.0
2016-Jun-26 02:34N 45°12' E 012°16'0 0.0
2016-Jun-26 01:33N 45°12' E 012°16'0 0.0
2016-Jun-26 00:33N 45°12' E 012°16'0 0.0
2016-Jun-25 23:34N 45°12' E 012°16'0 0.0
2016-Jun-25 22:33N 45°12' E 012°16'0 0.0
2016-Jun-25 21:34N 45°12' E 012°16'0 0.0
2016-Jun-25 20:34N 45°12' E 012°16'0 0.0
2016-Jun-25 19:33N 45°12' E 012°16'0 0.0
2016-Jun-25 18:34N 45°12' E 012°16'0 0.0
2016-Jun-25 17:33N 45°12' E 012°16'0 0.0
2016-Jun-25 16:34N 45°12' E 012°16'0 0.0
2016-Jun-25 15:34N 45°12' E 012°16'0 0.0
2016-Jun-25 14:33N 45°12' E 012°16'0 0.0
2016-Jun-25 13:34N 45°12' E 012°16'0 0.0
2016-Jun-25 12:33N 45°12' E 012°16'0 0.0
2016-Jun-25 11:34N 45°12' E 012°16'0 0.0
2016-Jun-25 10:33N 45°12' E 012°16'0 0.0
2016-Jun-25 09:33N 45°12' E 012°16'0 0.0
2016-Jun-25 08:34N 45°12' E 012°16'0 0.0
2016-Jun-25 07:33N 45°12' E 012°16'0 0.0
2016-Jun-25 06:33N 45°12' E 012°16'0 0.0
2016-Jun-25 05:34N 45°12' E 012°16'0 0.0
2016-Jun-25 04:34N 45°12' E 012°16'0 0.0
2016-Jun-25 03:33N 45°12' E 012°16'0 0.0
2016-Jun-25 02:33N 45°12' E 012°16'0 0.0
2016-Jun-25 01:33N 45°12' E 012°16'0 0.0
2016-Jun-25 00:33N 45°12' E 012°16'0 0.0
2016-Jun-24 23:34N 45°12' E 012°16'0 0.0
2016-Jun-24 22:34N 45°12' E 012°16'0 0.0
2016-Jun-24 21:33N 45°12' E 012°16'0 0.0
2016-Jun-24 20:33N 45°12' E 012°16'0 0.0
2016-Jun-24 19:34N 45°12' E 012°16'0 0.0
2016-Jun-24 18:34N 45°12' E 012°16'0 0.0
2016-Jun-24 17:34N 45°12' E 012°16'0 0.0
2016-Jun-24 16:33N 45°12' E 012°16'0 0.0
2016-Jun-24 15:33N 45°12' E 012°16'0 0.0
2016-Jun-24 14:34N 45°12' E 012°16'0 0.0
2016-Jun-24 13:34N 45°12' E 012°16'5 5.0
2016-Jun-24 12:34N 45°16' E 012°20'4 3.6
2016-Jun-24 11:34N 45°20' E 012°20'0 0.0
2016-Jun-24 10:33N 45°20' E 012°20'0 0.0
2016-Jun-24 09:34N 45°20' E 012°20'0 0.0
2016-Jun-24 08:34N 45°20' E 012°20'0 0.0
2016-Jun-24 07:34N 45°20' E 012°20'1 0.4
2016-Jun-24 04:33N 45°19' E 012°21'6 6.5
2016-Jun-24 03:33N 45°13' E 012°16'1 1.1
2016-Jun-24 02:33N 45°12' E 012°16'0 0.0
2016-Jun-24 01:34N 45°12' E 012°16'0 0.0
2016-Jun-24 00:34N 45°12' E 012°16'0 0.0
2016-Jun-23 23:34N 45°12' E 012°16'0 0.0
2016-Jun-23 22:33N 45°12' E 012°16'0 0.0
2016-Jun-23 21:34N 45°12' E 012°16'0 0.0
2016-Jun-23 20:33N 45°12' E 012°16'0 0.0
2016-Jun-23 19:34N 45°12' E 012°16'0 0.0
2016-Jun-23 18:33N 45°12' E 012°16'0 0.0
2016-Jun-23 17:34N 45°12' E 012°16'0 0.0
2016-Jun-23 16:34N 45°12' E 012°16'0 0.0
2016-Jun-23 15:34N 45°12' E 012°16'6 6.5
2016-Jun-23 14:34N 45°18' E 012°20'2 2.2
2016-Jun-23 13:33N 45°20' E 012°20'0 0.0
2016-Jun-23 12:34N 45°20' E 012°20'0 0.1
2016-Jun-23 11:33N 45°20' E 012°20'0 0.1
2016-Jun-23 10:34N 45°20' E 012°20'0 0.0
2016-Jun-23 09:33N 45°20' E 012°20'0 0.2
2016-Jun-23 08:33N 45°20' E 012°20'0 0.2
2016-Jun-23 07:33N 45°20' E 012°20'1 0.5
2016-Jun-23 05:33N 45°20' E 012°21'7 7.4
2016-Jun-23 04:34N 45°13' E 012°16'1 0.8
2016-Jun-23 03:33N 45°12' E 012°16'0 0.0
2016-Jun-23 02:34N 45°12' E 012°16'0 0.0
2016-Jun-23 01:34N 45°12' E 012°16'0 0.0
2016-Jun-23 00:34N 45°12' E 012°16'0 0.0
2016-Jun-22 23:34N 45°12' E 012°16'0 0.0
2016-Jun-22 22:34N 45°12' E 012°16'0 0.0
2016-Jun-22 21:34N 45°12' E 012°16'0 0.0
2016-Jun-22 20:33N 45°12' E 012°16'0 0.0
2016-Jun-22 19:33N 45°12' E 012°16'4 4.4
2016-Jun-22 18:34N 45°16' E 012°20'4 4.5
2016-Jun-22 17:33N 45°20' E 012°20'0 0.0
2016-Jun-22 16:33N 45°20' E 012°20'0 0.0
2016-Jun-22 15:34N 45°20' E 012°20'0 0.0
2016-Jun-22 14:33N 45°20' E 012°20'0 0.0
2016-Jun-22 13:34N 45°20' E 012°20'0 0.0
2016-Jun-22 12:34N 45°20' E 012°20'0 0.0
2016-Jun-22 11:33N 45°20' E 012°20'0 0.0
2016-Jun-22 10:33N 45°20' E 012°20'0 0.0
2016-Jun-22 09:33N 45°20' E 012°20'0 0.0
2016-Jun-22 08:34N 45°20' E 012°20'0 0.0
2016-Jun-22 07:34N 45°20' E 012°20'1 0.6
2016-Jun-22 06:33N 45°20' E 012°20'7 6.6
2016-Jun-22 05:33N 45°26' E 012°24'1 1.4
2016-Jun-22 04:33N 45°25' E 012°25'7 7.5
2016-Jun-22 03:33N 45°18' E 012°20'7 6.7
2016-Jun-22 02:33N 45°12' E 012°16'0 0.0
2016-Jun-21 22:29N 45°12' E 012°16'0 0.0
2016-Jun-21 21:32N 45°12' E 012°16'0 0.0
2016-Jun-21 18:11N 45°12' E 012°16'0 0.0
2016-Jun-21 17:33N 45°12' E 012°16'0 0.0
2016-Jun-21 16:33N 45°12' E 012°16'0 0.0
2016-Jun-21 15:31N 45°12' E 012°16'0 0.0
2016-Jun-21 14:33N 45°12' E 012°16'0 0.0
2016-Jun-21 13:33N 45°12' E 012°16'0 0.0
2016-Jun-21 12:30N 45°12' E 012°16'2 2.3
2016-Jun-21 11:33N 45°14' E 012°18'6 6.3
2016-Jun-21 10:34N 45°20' E 012°19'0 0.2
2016-Jun-21 09:33N 45°20' E 012°20'0 0.2
2016-Jun-21 08:34N 45°20' E 012°20'0 0.2
2016-Jun-21 07:34N 45°20' E 012°20'0 0.0
2016-Jun-21 05:33N 45°20' E 012°20'0 0.0
2016-Jun-20 14:34N 45°20' E 012°20'0 0.0
2016-Jun-20 13:34N 45°20' E 012°20'0 0.0
2016-Jun-20 12:34N 45°20' E 012°20'0 0.1
2016-Jun-20 11:33N 45°20' E 012°20'0 0.1
2016-Jun-20 10:33N 45°20' E 012°20'0 0.0
2016-Jun-20 09:34N 45°20' E 012°20'0 0.1
2016-Jun-20 08:34N 45°20' E 012°20'0 0.0
2016-Jun-20 07:33N 45°20' E 012°20'0 0.0
2016-Jun-20 06:34N 45°20' E 012°20'0 0.0
2016-Jun-20 05:34N 45°20' E 012°20'  
Track history (hours):
 
Tides and Currents Weather Stations Pressure Air Temp Water Temp Dewpoint Dewpoint Depression Visibility Wind Speed Wind Dir Waves Ship Positions

Ulisse Primo

Last reported at 2016-Jun-28 12:33 UTC. Time now 2016-Jun-28 13:29 UTC.
Position N 45°20' E 012°20'.

Length 50 m.

Type: Other ship. MMSI: 247033000.

Date/timePositionNaut miles runAvg speedWind from/ knotsBaromVisibWave heightAir tempDewpointWater temp
2016-Jun-28 12:33N 45°20' E 012°20'0 0.0
2016-Jun-28 11:33N 45°20' E 012°20'0 0.0
2016-Jun-28 10:34N 45°20' E 012°20'0 0.0
2016-Jun-28 09:34N 45°20' E 012°20'0 0.0
2016-Jun-28 08:33N 45°20' E 012°20'0 0.0
2016-Jun-28 07:33N 45°20' E 012°20'0 0.0
2016-Jun-28 06:33N 45°20' E 012°20'1 0.7
2016-Jun-28 04:34N 45°19' E 012°21'6 6.4
2016-Jun-28 03:33N 45°13' E 012°16'1 0.9
2016-Jun-28 02:34N 45°12' E 012°16'0 0.0
2016-Jun-28 01:34N 45°12' E 012°16'0 0.0
2016-Jun-28 00:34N 45°12' E 012°16'0 0.0
2016-Jun-27 23:33N 45°12' E 012°16'0 0.0
2016-Jun-27 22:34N 45°12' E 012°16'0 0.0
2016-Jun-27 21:33N 45°12' E 012°16'0 0.0
2016-Jun-27 20:33N 45°12' E 012°16'0 0.0
2016-Jun-27 19:34N 45°12' E 012°16'0 0.0
2016-Jun-27 18:33N 45°12' E 012°16'0 0.0
2016-Jun-27 17:33N 45°12' E 012°16'0 0.0
2016-Jun-27 16:34N 45°12' E 012°16'0 0.0
2016-Jun-27 15:33N 45°12' E 012°16'0 0.0
2016-Jun-27 14:33N 45°12' E 012°16'0 0.0
2016-Jun-27 13:33N 45°12' E 012°16'4 4.5
2016-Jun-27 12:34N 45°16' E 012°20'4 4.3
2016-Jun-27 11:34N 45°20' E 012°20'0 0.0
2016-Jun-27 10:33N 45°20' E 012°20'0 0.0
2016-Jun-27 09:33N 45°20' E 012°20'0 0.0
2016-Jun-27 08:34N 45°20' E 012°20'0 0.0
2016-Jun-27 07:33N 45°20' E 012°20'0 0.0
2016-Jun-27 06:34N 45°20' E 012°20'0 0.0
2016-Jun-27 05:33N 45°20' E 012°20'3 2.9
2016-Jun-27 04:34N 45°17' E 012°20'6 5.8
2016-Jun-27 03:33N 45°12' E 012°16'0 0.0
2016-Jun-27 02:33N 45°12' E 012°16'0 0.0
2016-Jun-27 01:33N 45°12' E 012°16'0 0.0
2016-Jun-27 00:34N 45°12' E 012°16'0 0.0
2016-Jun-26 23:33N 45°12' E 012°16'0 0.0
2016-Jun-26 22:33N 45°12' E 012°16'0 0.0
2016-Jun-26 21:33N 45°12' E 012°16'0 0.0
2016-Jun-26 20:33N 45°12' E 012°16'0 0.0
2016-Jun-26 19:33N 45°12' E 012°16'0 0.0
2016-Jun-26 18:34N 45°12' E 012°16'0 0.0
2016-Jun-26 17:34N 45°12' E 012°16'0 0.0
2016-Jun-26 16:33N 45°12' E 012°16'0 0.0
2016-Jun-26 15:34N 45°12' E 012°16'0 0.0
2016-Jun-26 14:33N 45°12' E 012°16'0 0.0
2016-Jun-26 13:33N 45°12' E 012°16'0 0.0
2016-Jun-26 12:34N 45°12' E 012°16'0 0.0
2016-Jun-26 11:34N 45°12' E 012°16'0 0.0
2016-Jun-26 10:34N 45°12' E 012°16'0 0.0
2016-Jun-26 09:33N 45°12' E 012°16'0 0.0
2016-Jun-26 08:34N 45°12' E 012°16'0 0.0
2016-Jun-26 07:33N 45°12' E 012°16'0 0.0
2016-Jun-26 06:34N 45°12' E 012°16'0 0.0
2016-Jun-26 05:33N 45°12' E 012°16'0 0.0
2016-Jun-26 04:34N 45°12' E 012°16'0 0.0
2016-Jun-26 03:33N 45°12' E 012°16'0 0.0
2016-Jun-26 02:34N 45°12' E 012°16'0 0.0
2016-Jun-26 01:33N 45°12' E 012°16'0 0.0
2016-Jun-26 00:33N 45°12' E 012°16'0 0.0
2016-Jun-25 23:34N 45°12' E 012°16'0 0.0
2016-Jun-25 22:33N 45°12' E 012°16'0 0.0
2016-Jun-25 21:34N 45°12' E 012°16'0 0.0
2016-Jun-25 20:34N 45°12' E 012°16'0 0.0
2016-Jun-25 19:33N 45°12' E 012°16'0 0.0
2016-Jun-25 18:34N 45°12' E 012°16'0 0.0
2016-Jun-25 17:33N 45°12' E 012°16'0 0.0
2016-Jun-25 16:34N 45°12' E 012°16'0 0.0
2016-Jun-25 15:34N 45°12' E 012°16'0 0.0
2016-Jun-25 14:33N 45°12' E 012°16'0 0.0
2016-Jun-25 13:34N 45°12' E 012°16'0 0.0
2016-Jun-25 12:33N 45°12' E 012°16'0 0.0
2016-Jun-25 11:34N 45°12' E 012°16'0 0.0
2016-Jun-25 10:33N 45°12' E 012°16'0 0.0
2016-Jun-25 09:33N 45°12' E 012°16'0 0.0
2016-Jun-25 08:34N 45°12' E 012°16'0 0.0
2016-Jun-25 07:33N 45°12' E 012°16'0 0.0
2016-Jun-25 06:33N 45°12' E 012°16'0 0.0
2016-Jun-25 05:34N 45°12' E 012°16'0 0.0
2016-Jun-25 04:34N 45°12' E 012°16'0 0.0
2016-Jun-25 03:33N 45°12' E 012°16'0 0.0
2016-Jun-25 02:33N 45°12' E 012°16'0 0.0
2016-Jun-25 01:33N 45°12' E 012°16'0 0.0
2016-Jun-25 00:33N 45°12' E 012°16'0 0.0
2016-Jun-24 23:34N 45°12' E 012°16'0 0.0
2016-Jun-24 22:34N 45°12' E 012°16'0 0.0
2016-Jun-24 21:33N 45°12' E 012°16'0 0.0
2016-Jun-24 20:33N 45°12' E 012°16'0 0.0
2016-Jun-24 19:34N 45°12' E 012°16'0 0.0
2016-Jun-24 18:34N 45°12' E 012°16'0 0.0
2016-Jun-24 17:34N 45°12' E 012°16'0 0.0
2016-Jun-24 16:33N 45°12' E 012°16'0 0.0
2016-Jun-24 15:33N 45°12' E 012°16'0 0.0
2016-Jun-24 14:34N 45°12' E 012°16'0 0.0
2016-Jun-24 13:34N 45°12' E 012°16'5 5.0
2016-Jun-24 12:34N 45°16' E 012°20'4 3.6
2016-Jun-24 11:34N 45°20' E 012°20'0 0.0
2016-Jun-24 10:33N 45°20' E 012°20'0 0.0
2016-Jun-24 09:34N 45°20' E 012°20'0 0.0
2016-Jun-24 08:34N 45°20' E 012°20'0 0.0
2016-Jun-24 07:34N 45°20' E 012°20'1 0.4
2016-Jun-24 04:33N 45°19' E 012°21'6 6.5
2016-Jun-24 03:33N 45°13' E 012°16'1 1.1
2016-Jun-24 02:33N 45°12' E 012°16'0 0.0
2016-Jun-24 01:34N 45°12' E 012°16'0 0.0
2016-Jun-24 00:34N 45°12' E 012°16'0 0.0
2016-Jun-23 23:34N 45°12' E 012°16'0 0.0
2016-Jun-23 22:33N 45°12' E 012°16'0 0.0
2016-Jun-23 21:34N 45°12' E 012°16'0 0.0
2016-Jun-23 20:33N 45°12' E 012°16'0 0.0
2016-Jun-23 19:34N 45°12' E 012°16'0 0.0
2016-Jun-23 18:33N 45°12' E 012°16'0 0.0
2016-Jun-23 17:34N 45°12' E 012°16'0 0.0
2016-Jun-23 16:34N 45°12' E 012°16'0 0.0
2016-Jun-23 15:34N 45°12' E 012°16'6 6.5
2016-Jun-23 14:34N 45°18' E 012°20'2 2.2
2016-Jun-23 13:33N 45°20' E 012°20'0 0.0
2016-Jun-23 12:34N 45°20' E 012°20'0 0.1
2016-Jun-23 11:33N 45°20' E 012°20'0 0.1
2016-Jun-23 10:34N 45°20' E 012°20'0 0.0
2016-Jun-23 09:33N 45°20' E 012°20'0 0.2
2016-Jun-23 08:33N 45°20' E 012°20'0 0.2
2016-Jun-23 07:33N 45°20' E 012°20'1 0.5
2016-Jun-23 05:33N 45°20' E 012°21'7 7.4
2016-Jun-23 04:34N 45°13' E 012°16'1 0.8
2016-Jun-23 03:33N 45°12' E 012°16'0 0.0
2016-Jun-23 02:34N 45°12' E 012°16'0 0.0
2016-Jun-23 01:34N 45°12' E 012°16'0 0.0
2016-Jun-23 00:34N 45°12' E 012°16'0 0.0
2016-Jun-22 23:34N 45°12' E 012°16'0 0.0
2016-Jun-22 22:34N 45°12' E 012°16'0 0.0
2016-Jun-22 21:34N 45°12' E 012°16'0 0.0
2016-Jun-22 20:33N 45°12' E 012°16'0 0.0
2016-Jun-22 19:33N 45°12' E 012°16'4 4.4
2016-Jun-22 18:34N 45°16' E 012°20'4 4.5
2016-Jun-22 17:33N 45°20' E 012°20'0 0.0
2016-Jun-22 16:33N 45°20' E 012°20'0 0.0
2016-Jun-22 15:34N 45°20' E 012°20'0 0.0
2016-Jun-22 14:33N 45°20' E 012°20'0 0.0
2016-Jun-22 13:34N 45°20' E 012°20'0 0.0
2016-Jun-22 12:34N 45°20' E 012°20'0 0.0
2016-Jun-22 11:33N 45°20' E 012°20'0 0.0
2016-Jun-22 10:33N 45°20' E 012°20'0 0.0
2016-Jun-22 09:33N 45°20' E 012°20'0 0.0
2016-Jun-22 08:34N 45°20' E 012°20'0 0.0
2016-Jun-22 07:34N 45°20' E 012°20'1 0.6
2016-Jun-22 06:33N 45°20' E 012°20'7 6.6
2016-Jun-22 05:33N 45°26' E 012°24'1 1.4
2016-Jun-22 04:33N 45°25' E 012°25'7 7.5
2016-Jun-22 03:33N 45°18' E 012°20'7 6.7
2016-Jun-22 02:33N 45°12' E 012°16'0 0.0
2016-Jun-21 22:29N 45°12' E 012°16'0 0.0
2016-Jun-21 21:32N 45°12' E 012°16'0 0.0
2016-Jun-21 18:11N 45°12' E 012°16'0 0.0
2016-Jun-21 17:33N 45°12' E 012°16'0 0.0
2016-Jun-21 16:33N 45°12' E 012°16'0 0.0
2016-Jun-21 15:31N 45°12' E 012°16'0 0.0
2016-Jun-21 14:33N 45°12' E 012°16'0 0.0
2016-Jun-21 13:33N 45°12' E 012°16'0 0.0
2016-Jun-21 12:30N 45°12' E 012°16'2 2.3
2016-Jun-21 11:33N 45°14' E 012°18'6 6.3
2016-Jun-21 10:34N 45°20' E 012°19'0 0.2
2016-Jun-21 09:33N 45°20' E 012°20'0 0.2
2016-Jun-21 08:34N 45°20' E 012°20'0 0.2
2016-Jun-21 07:34N 45°20' E 012°20'0 0.0
2016-Jun-21 05:33N 45°20' E 012°20'0 0.0
2016-Jun-20 14:34N 45°20' E 012°20'0 0.0
2016-Jun-20 13:34N 45°20' E 012°20'0 0.0
2016-Jun-20 12:34N 45°20' E 012°20'0 0.1
2016-Jun-20 11:33N 45°20' E 012°20'0 0.1
2016-Jun-20 10:33N 45°20' E 012°20'0 0.0
2016-Jun-20 09:34N 45°20' E 012°20'0 0.1
2016-Jun-20 08:34N 45°20' E 012°20'0 0.0
2016-Jun-20 07:33N 45°20' E 012°20'0 0.0
2016-Jun-20 06:34N 45°20' E 012°20'0 0.0
2016-Jun-20 05:34N 45°20' E 012°20'  

Dump ship's entire track history